Time;durP1;ratioP1;P1;durP2;ratioP2;P2;SDS_P1;SDS_P2;PMS_P1;PMS_P2;Temp;Humidity;BMP_temperature;BMP_pressure;BME280_temperature;BME280_humidity;BME280_pressure;Samples;Min_cycle;Max_cycle;Signal;HPM_P1;HPM_P2
2023/02/13 00:00:39;;;;;;;6.9;4.9;;;;;;;;;;;;;
2023/02/13 00:03:04;;;;;;;5.6;4.3;;;;;;;;;;;;;
2023/02/13 00:05:33;;;;;;;6;4.7;;;;;;;;;;;;;
2023/02/13 00:07:58;;;;;;;10.5;5.6;;;;;;;;;;;;;
2023/02/13 00:10:26;;;;;;;7.9;4.8;;;;;;;;;;;;;
2023/02/13 00:12:54;;;;;;;6.4;4.6;;;;;;;;;;;;;
2023/02/13 00:15:19;;;;;;;6.2;4.1;;;;;;;;;;;;;
2023/02/13 00:17:44;;;;;;;6.7;4.6;;;;;;;;;;;;;
2023/02/13 00:20:14;;;;;;;7.5;4.4;;;;;;;;;;;;;
2023/02/13 00:22:46;;;;;;;8.1;4.7;;;;;;;;;;;;;
2023/02/13 00:25:15;;;;;;;5.8;3.8;;;;;;;;;;;;;
2023/02/13 00:27:47;;;;;;;6;3.8;;;;;;;;;;;;;
2023/02/13 00:30:16;;;;;;;5.4;4;;;;;;;;;;;;;
2023/02/13 00:32:41;;;;;;;6.4;3.9;;;;;;;;;;;;;
2023/02/13 00:35:09;;;;;;;6.5;4;;;;;;;;;;;;;
2023/02/13 00:37:34;;;;;;;5.7;4;;;;;;;;;;;;;
2023/02/13 00:40:05;;;;;;;5.2;3.4;;;;;;;;;;;;;
2023/02/13 00:42:37;;;;;;;6.3;4.2;;;;;;;;;;;;;
2023/02/13 00:45:03;;;;;;;5.6;4.1;;;;;;;;;;;;;
2023/02/13 00:47:28;;;;;;;6.7;4.4;;;;;;;;;;;;;
2023/02/13 00:49:55;;;;;;;6.1;4.1;;;;;;;;;;;;;
2023/02/13 00:52:27;;;;;;;7.2;4.3;;;;;;;;;;;;;
2023/02/13 00:54:53;;;;;;;6.5;4.5;;;;;;;;;;;;;
2023/02/13 00:57:18;;;;;;;5.2;3.9;;;;;;;;;;;;;
2023/02/13 00:59:43;;;;;;;6.3;4.1;;;;;;;;;;;;;
2023/02/13 01:02:08;;;;;;;5.4;3.6;;;;;;;;;;;;;
2023/02/13 01:04:33;;;;;;;6.9;4.3;;;;;;;;;;;;;
2023/02/13 01:06:58;;;;;;;5.1;3.9;;;;;;;;;;;;;
2023/02/13 01:09:28;;;;;;;4.5;3.2;;;;;;;;;;;;;
2023/02/13 01:11:53;;;;;;;7.5;4;;;;;;;;;;;;;
2023/02/13 01:14:19;;;;;;;6.7;3.9;;;;;;;;;;;;;
2023/02/13 01:16:44;;;;;;;6.5;4.4;;;;;;;;;;;;;
2023/02/13 01:19:09;;;;;;;6.1;4.3;;;;;;;;;;;;;
2023/02/13 01:21:38;;;;;;;5.3;3.8;;;;;;;;;;;;;
2023/02/13 01:24:03;;;;;;;4.6;3.5;;;;;;;;;;;;;
2023/02/13 01:26:29;;;;;;;6.1;3.9;;;;;;;;;;;;;
2023/02/13 01:28:56;;;;;;;5.4;3.9;;;;;;;;;;;;;
2023/02/13 01:31:22;;;;;;;6.6;3.9;;;;;;;;;;;;;
2023/02/13 01:33:47;;;;;;;5.5;3.8;;;;;;;;;;;;;
2023/02/13 01:36:13;;;;;;;5.7;3.7;;;;;;;;;;;;;
2023/02/13 01:38:37;;;;;;;6.5;3.8;;;;;;;;;;;;;
2023/02/13 01:41:03;;;;;;;6.1;4;;;;;;;;;;;;;
2023/02/13 01:43:28;;;;;;;7.1;4.3;;;;;;;;;;;;;
2023/02/13 01:45:54;;;;;;;7.2;4.8;;;;;;;;;;;;;
2023/02/13 01:48:19;;;;;;;14.8;8.1;;;;;;;;;;;;;
2023/02/13 01:50:47;;;;;;;27.6;13.4;;;;;;;;;;;;;
2023/02/13 01:53:12;;;;;;;16.2;8.6;;;;;;;;;;;;;
2023/02/13 01:55:37;;;;;;;13.9;7.5;;;;;;;;;;;;;
2023/02/13 01:58:03;;;;;;;12.2;7.4;;;;;;;;;;;;;
2023/02/13 02:00:30;;;;;;;10.8;5.7;;;;;;;;;;;;;
2023/02/13 02:02:55;;;;;;;9.9;5.5;;;;;;;;;;;;;
2023/02/13 02:05:20;;;;;;;9.9;6;;;;;;;;;;;;;
2023/02/13 02:07:45;;;;;;;10.3;5.8;;;;;;;;;;;;;
2023/02/13 02:10:15;;;;;;;8.5;5.3;;;;;;;;;;;;;
2023/02/13 02:12:42;;;;;;;7.7;4.7;;;;;;;;;;;;;
2023/02/13 02:15:07;;;;;;;6.7;4.6;;;;;;;;;;;;;
2023/02/13 02:17:35;;;;;;;7.6;4.8;;;;;;;;;;;;;
2023/02/13 02:20:00;;;;;;;9.2;4.8;;;;;;;;;;;;;
2023/02/13 02:22:25;;;;;;;5.5;4;;;;;;;;;;;;;
2023/02/13 02:24:50;;;;;;;6.5;4.1;;;;;;;;;;;;;
2023/02/13 02:27:15;;;;;;;7;4.3;;;;;;;;;;;;;
2023/02/13 02:29:40;;;;;;;5.6;3.9;;;;;;;;;;;;;
2023/02/13 02:32:06;;;;;;;5.6;3.6;;;;;;;;;;;;;
2023/02/13 02:34:31;;;;;;;5.8;3.8;;;;;;;;;;;;;
2023/02/13 02:36:56;;;;;;;6;3.4;;;;;;;;;;;;;
2023/02/13 02:39:21;;;;;;;5;3.7;;;;;;;;;;;;;
2023/02/13 02:41:46;;;;;;;4.3;3.8;;;;;;;;;;;;;
2023/02/13 02:44:11;;;;;;;5.4;3.6;;;;;;;;;;;;;
2023/02/13 02:46:37;;;;;;;6.5;4.5;;;;;;;;;;;;;
2023/02/13 02:51:27;;;;;;;7.1;4.6;;;;;;;;;;;;;
2023/02/13 02:53:52;;;;;;;5.7;4.5;;;;;;;;;;;;;
2023/02/13 02:56:17;;;;;;;7;4.4;;;;;;;;;;;;;
2023/02/13 03:06:12;;;;;;;7.3;5.4;;;;;;;;;;;;;
2023/02/13 03:13:22;;;;;;;9;5.9;;;;;;;;;;;;;
2023/02/13 03:23:04;;;;;;;9.5;6.8;;;;;;;;;;;;;
2023/02/13 03:25:33;;;;;;;9.2;7.4;;;;;;;;;;;;;
2023/02/13 03:30:24;;;;;;;10.8;8;;;;;;;;;;;;;
2023/02/13 03:32:49;;;;;;;11;8.5;;;;;;;;;;;;;
2023/02/13 03:37:57;;;;;;;13.3;9.9;;;;;;;;;;;;;
2023/02/13 03:40:07;;;;;;;14.1;9.8;;;;;;;;;;;;;
2023/02/13 03:42:32;;;;;;;15.9;9.3;;;;;;;;;;;;;
2023/02/13 03:47:25;;;;;;;14.3;10.7;;;;;;;;;;;;;
2023/02/13 03:50:08;;;;;;;15.8;11;;;;;;;;;;;;;
2023/02/13 03:52:16;;;;;;;15.4;11.3;;;;;;;;;;;;;
2023/02/13 03:59:31;;;;;;;19.4;10.7;;;;;;;;;;;;;
2023/02/13 04:02:43;;;;;;;20.3;12.1;;;;;;;-0.84;89.52832;954.4797;;;;
2023/02/13 04:05:18;;;;;;;18.6;11.5;;;;;;;-0.84;89.01465;954.4888;;;;
2023/02/13 04:07:55;;;;;;;19.8;11.7;;;;;;;-0.87;88.93164;954.5014;;;;
2023/02/13 04:10:26;;;;;;;19.6;11.1;;;;;;;-0.95;88.8584;954.588;;;;
2023/02/13 04:16:00;;;;;;;19.9;11.3;;;;;;;-0.99;88.84961;954.5737;;;;
2023/02/13 04:18:27;;;;;;;15.5;10.4;;;;;;;-1.05;88.91406;954.6563;;;;
2023/02/13 04:20:58;;;;;;;18.2;11.8;;;;;;;-1;89.01563;954.6484;;;;
2023/02/13 04:23:26;;;;;;;19.4;11.6;;;;;;;-1.11;89.75977;954.618;;;;
2023/02/13 04:25:51;;;;;;;16.5;11.5;;;;;;;-1.09;90.04102;954.63;;;;
2023/02/13 04:28:16;;;;;;;17.4;11.3;;;;;;;-1.14;90.17578;954.6254;;;;
2023/02/13 04:30:48;;;;;;;17.2;11;;;;;;;-1.11;89.94824;954.5627;;;;
2023/02/13 04:33:15;;;;;;;15.5;11;;;;;;;-1.12;89.64453;954.6047;;;;
2023/02/13 04:35:40;;;;;;;17.1;11.2;;;;;;;-1.11;89.27051;954.6158;;;;
2023/02/13 04:38:12;;;;;;;19.1;11.9;;;;;;;-1.08;89.27637;954.5474;;;;
2023/02/13 04:40:43;;;;;;;16.7;10.9;;;;;;;-1.11;89.12598;954.5809;;;;
2023/02/13 04:43:11;;;;;;;17;11.4;;;;;;;-1.09;89.36328;954.6337;;;;
2023/02/13 04:45:41;;;;;;;17.7;11.8;;;;;;;-1.11;89.39258;954.6131;;;;
2023/02/13 04:48:06;;;;;;;19.3;12.8;;;;;;;-1.03;88.88574;954.6342;;;;
2023/02/13 04:50:34;;;;;;;27.3;15.3;;;;;;;-1.15;89.19434;954.5901;;;;
2023/02/13 04:52:59;;;;;;;24;14.4;;;;;;;-1.23;89.85645;954.5714;;;;
2023/02/13 04:55:26;;;;;;;21.3;13.7;;;;;;;-1.25;90.08398;954.5886;;;;
2023/02/13 04:58:47;;;;;;;20.5;13;;;;;;;-1.23;89.8125;954.712;;;;
2023/02/13 05:01:12;;;;;;;20.2;12.5;;;;;;;-1.2;89.27148;954.7318;;;;
2023/02/13 05:03:37;;;;;;;19.5;13.5;;;;;;;-1.23;88.8125;954.7449;;;;
2023/02/13 05:06:06;;;;;;;20.1;12.8;;;;;;;-1.29;88.36621;954.8217;;;;
2023/02/13 05:08:31;;;;;;;20.8;13.8;;;;;;;-1.31;88.19434;954.8416;;;;
2023/02/13 05:10:56;;;;;;;21.5;12.7;;;;;;;-1.43;87.9248;954.7924;;;;
2023/02/13 05:13:22;;;;;;;21.3;13;;;;;;;-1.45;88.56543;954.8772;;;;
2023/02/13 05:15:51;;;;;;;19.3;11.6;;;;;;;-1.43;88.91504;954.8621;;;;
2023/02/13 05:18:20;;;;;;;21;13;;;;;;;-1.38;88.9668;954.8416;;;;
2023/02/13 05:23:21;;;;;;;21.8;13;;;;;;;-1.37;89.35938;954.8466;;;;
2023/02/13 05:24:29;;;;;;;19.2;12.7;;;;;;;-1.35;89.21875;954.8387;;;;
2023/02/13 05:30:48;;;;;;;16.2;11.9;;;;;;;-1.39;87.96777;954.8775;;;;
2023/02/13 05:33:18;;;;;;;16.5;12.4;;;;;;;-1.32;87.92578;954.758;;;;
2023/02/13 05:35:43;;;;;;;19.9;12.5;;;;;;;-1.44;87.58984;954.8599;;;;
2023/02/13 05:38:12;;;;;;;19.1;13.1;;;;;;;-1.5;87.31055;954.8231;;;;
2023/02/13 05:40:43;;;;;;;23.1;12.7;;;;;;;-1.57;87.70801;954.8455;;;;
2023/02/13 05:43:13;;;;;;;21.2;13.4;;;;;;;-1.66;88.06641;954.8516;;;;
2023/02/13 05:45:38;;;;;;;20.6;12.5;;;;;;;-1.7;88.80078;954.8566;;;;
2023/02/13 05:51:53;;;;;;;19.4;12.6;;;;;;;-1.85;90.02344;954.8016;;;;
2023/02/13 05:54:24;;;;;;;19.4;13;;;;;;;-1.78;89.91504;954.7922;;;;
2023/02/13 06:03:05;;;;;;;23.5;15.7;;;;;;;-1.85;91.00977;954.71;;;;
2023/02/13 06:05:40;;;;;;;21.6;14.8;;;;;;;-1.82;91.54883;954.7068;;;;
2023/02/13 06:08:05;;;;;;;20.7;13.8;;;;;;;-1.69;91.13379;954.7736;;;;
2023/02/13 06:10:31;;;;;;;18.4;12.5;;;;;;;-1.82;91.1377;954.7281;;;;
2023/02/13 06:12:56;;;;;;;21.5;13.1;;;;;;;-1.78;90.89258;954.8026;;;;
2023/02/13 06:15:30;;;;;;;17.5;13.2;;;;;;;-1.65;90.16602;954.6958;;;;
2023/02/13 06:17:58;;;;;;;17.5;12.4;;;;;;;-1.53;89.68066;954.741;;;;
2023/02/13 06:20:32;;;;;;;17.2;11.5;;;;;;;-1.53;89.02539;954.6863;;;;
2023/02/13 06:23:00;;;;;;;17.1;12.3;;;;;;;-1.53;88.75879;954.7191;;;;
2023/02/13 06:25:26;;;;;;;15.8;11.9;;;;;;;-1.5;88.32031;954.7252;;;;
2023/02/13 06:27:51;;;;;;;12.7;9.1;;;;;;;-1.52;87.98438;954.6526;;;;
2023/02/13 06:30:16;;;;;;;13.9;9.1;;;;;;;-1.55;88.93262;954.734;;;;
2023/02/13 06:32:50;;;;;;;11.9;8.4;;;;;;;-1.55;89.23438;954.75;;;;
2023/02/13 06:35:26;;;;;;;17.5;11.2;;;;;;;-1.49;89;954.7255;;;;
2023/02/13 06:37:57;;;;;;;16.6;10.8;;;;;;;-1.48;88.80176;954.7106;;;;
2023/02/13 06:40:23;;;;;;;15.3;10.4;;;;;;;-1.55;89.31055;954.7028;;;;
2023/02/13 06:42:53;;;;;;;19.2;13.2;;;;;;;-1.49;89.33301;954.7604;;;;
2023/02/13 06:53:45;;;;;;;11.6;7.6;;;;;;;-1.13;87.6543;954.8269;;;;
2023/02/13 06:56:12;;;;;;;9;6.4;;;;;;;-1.32;88.43652;954.8705;;;;
2023/02/13 06:58:38;;;;;;;13.1;8;;;;;;;-1.34;88.83203;954.8105;;;;
2023/02/13 07:01:08;;;;;;;23.3;17.6;;;;;;;-1.35;88.93066;954.8273;;;;
2023/02/13 07:03:33;;;;;;;20.1;13.8;;;;;;;-1.31;88.80469;954.7827;;;;
2023/02/13 07:06:02;;;;;;;15.9;9.8;;;;;;;-1.06;89.3252;954.8378;;;;
2023/02/13 07:08:34;;;;;;;8.9;7.1;;;;;;;-0.78;88.36133;954.8474;;;;
2023/02/13 07:11:03;;;;;;;10.9;6.7;;;;;;;-0.46;86.94727;954.7723;;;;
2023/02/13 07:13:28;;;;;;;14.4;8.5;;;;;;;-0.35;86.73828;954.9111;;;;
2023/02/13 07:15:59;;;;;;;7.2;5;;;;;;;0.55;84.60254;954.873;;;;
2023/02/13 07:18:30;;;;;;;7.2;6.5;;;;;;;1.36;80.39551;954.8333;;;;
2023/02/13 07:20:59;;;;;;;7.7;5.2;;;;;;;1.99;77.76172;954.7883;;;;
2023/02/13 07:23:24;;;;;;;6.3;4.2;;;;;;;1.75;77.65039;954.8633;;;;
2023/02/13 07:25:51;;;;;;;6.7;3.8;;;;;;;2.82;75.15625;954.8747;;;;
2023/02/13 07:28:16;;;;;;;12.4;7.7;;;;;;;3.83;73.55859;954.8825;;;;
2023/02/13 07:30:41;;;;;;;9.4;5.5;;;;;;;4.58;69.4209;954.8411;;;;
2023/02/13 07:33:10;;;;;;;15.4;9.2;;;;;;;5.24;65.51172;954.8251;;;;
2023/02/13 07:35:36;;;;;;;9.2;5.2;;;;;;;5.73;65.23633;954.848;;;;
2023/02/13 07:38:03;;;;;;;9.7;6.9;;;;;;;5.1;64.17188;954.8936;;;;
2023/02/13 07:40:30;;;;;;;7.5;5.1;;;;;;;4.95;65.66016;954.9402;;;;
2023/02/13 07:43:01;;;;;;;13.7;7.7;;;;;;;4.45;66.22363;954.9753;;;;
2023/02/13 07:45:31;;;;;;;15.2;9.5;;;;;;;4.52;66.41504;955.0022;;;;
2023/02/13 07:48:03;;;;;;;16.3;9.9;;;;;;;3.73;68.85547;955.0392;;;;
2023/02/13 07:50:33;;;;;;;10.2;6.5;;;;;;;3.86;69.94336;955.0477;;;;
2023/02/13 07:53:03;;;;;;;6.6;5.1;;;;;;;5.38;65.88379;955.0366;;;;
2023/02/13 07:55:34;;;;;;;10.5;5.8;;;;;;;6.34;62.37891;955.0477;;;;
2023/02/13 07:57:59;;;;;;;10.7;6.7;;;;;;;6.61;61.2998;954.9317;;;;
2023/02/13 08:00:29;;;;;;;10.4;6.6;;;;;;;6.25;63.30566;955.0466;;;;
2023/02/13 08:03:00;;;;;;;9.3;6.1;;;;;;;7.08;61.21973;955.0748;;;;
2023/02/13 08:05:32;;;;;;;9.1;6;;;;;;;7.71;57.74805;955.1278;;;;
2023/02/13 08:08:01;;;;;;;11.7;6.2;;;;;;;7.14;57.77246;955.077;;;;
2023/02/13 08:12:53;;;;;;;11.3;7.9;;;;;;;6.39;58.74707;955.1448;;;;
2023/02/13 08:15:29;;;;;;;13.3;7.5;;;;;;;6.47;59.07324;955.2242;;;;
2023/02/13 08:17:56;;;;;;;11.4;8.1;;;;;;;6.42;60.14063;955.2792;;;;
2023/02/13 08:20:28;;;;;;;10.3;7.6;;;;;;;6.3;59.85254;955.2544;;;;
2023/02/13 08:22:56;;;;;;;9.7;7.4;;;;;;;7.25;57.51465;955.3186;;;;
2023/02/13 08:25:21;;;;;;;8.4;6.5;;;;;;;7.43;55.91797;955.2889;;;;
2023/02/13 08:27:51;;;;;;;9.2;6.5;;;;;;;7.7;56.22559;955.3523;;;;
2023/02/13 08:30:22;;;;;;;9.1;6.5;;;;;;;8.41;53.89941;955.3553;;;;
2023/02/13 08:32:47;;;;;;;9.3;6.4;;;;;;;8.66;52.8623;955.3506;;;;
2023/02/13 08:35:21;;;;;;;6.1;5.5;;;;;;;9.38;51.31055;955.3226;;;;
2023/02/13 08:37:46;;;;;;;6.8;5.1;;;;;;;9.88;49.03223;955.3459;;;;
2023/02/13 08:40:17;;;;;;;7.2;5.8;;;;;;;9.43;50.40527;955.3525;;;;
2023/02/13 08:42:43;;;;;;;7.3;5.6;;;;;;;9.84;50.25879;955.3872;;;;
2023/02/13 08:45:15;;;;;;;6.1;5;;;;;;;9.29;50.79785;955.3983;;;;
2023/02/13 08:47:41;;;;;;;7.2;5.3;;;;;;;8.28;53.93945;955.447;;;;
2023/02/13 08:50:06;;;;;;;6.5;5.5;;;;;;;7.78;55.50977;955.4656;;;;
2023/02/13 08:52:39;;;;;;;8.2;6.1;;;;;;;7.02;58.53809;955.4324;;;;
2023/02/13 08:55:08;;;;;;;8.5;6.5;;;;;;;6.19;61.55371;955.4548;;;;
2023/02/13 08:57:40;;;;;;;9.2;7;;;;;;;5.85;62.69141;955.4503;;;;
2023/02/13 09:00:05;;;;;;;9.4;6.4;;;;;;;5.18;64.56738;955.5084;;;;
2023/02/13 09:02:36;;;;;;;7.5;6;;;;;;;4.95;65.09668;955.4802;;;;
2023/02/13 09:05:03;;;;;;;8.7;6.3;;;;;;;4.65;67.6416;955.46;;;;
2023/02/13 09:07:28;;;;;;;9.5;6.6;;;;;;;4.07;69.51563;955.486;;;;
2023/02/13 09:09:56;;;;;;;9.4;6.8;;;;;;;4.1;70.61328;955.4465;;;;
2023/02/13 09:12:22;;;;;;;8.3;6.6;;;;;;;4.08;70.90332;955.4617;;;;
2023/02/13 09:14:48;;;;;;;9.7;7.4;;;;;;;4.34;70.29199;955.41;;;;
2023/02/13 09:17:17;;;;;;;9;6.7;;;;;;;4.56;69.90137;955.3943;;;;
2023/02/13 09:19:39;;;;;;;9.4;7;;;;;;;4.53;70.13086;955.3306;;;;
2023/02/13 09:22:07;;;;;;;8.8;6.5;;;;;;;4.69;69.12305;955.3485;;;;
2023/02/13 09:24:36;;;;;;;9;6.2;;;;;;;4.74;68.68066;955.3635;;;;
2023/02/13 09:27:01;;;;;;;8.1;6;;;;;;;4.85;68.65332;955.3546;;;;
2023/02/13 09:29:30;;;;;;;9;6.2;;;;;;;5.51;67.48438;955.2823;;;;
2023/02/13 09:31:53;;;;;;;7.8;5.9;;;;;;;5.95;65.75781;955.2673;;;;
2023/02/13 09:34:20;;;;;;;7.5;5.5;;;;;;;6.64;63.33984;955.2217;;;;
2023/02/13 09:36:45;;;;;;;6.8;5.3;;;;;;;7.76;59.56934;955.18;;;;
2023/02/13 09:39:13;;;;;;;7.3;5.2;;;;;;;8.98;55.7793;955.1763;;;;
2023/02/13 09:41:38;;;;;;;5.3;4.6;;;;;;;9.93;53.31348;955.1258;;;;
2023/02/13 09:44:06;;;;;;;6.2;4.9;;;;;;;10.28;51.05176;955.0589;;;;
2023/02/13 09:46:32;;;;;;;6.3;5;;;;;;;10.32;51.79883;954.9594;;;;
2023/02/13 09:49:01;;;;;;;7.5;5;;;;;;;11.03;50.37402;954.9276;;;;
2023/02/13 09:51:26;;;;;;;11.7;5.2;;;;;;;10.22;49.55078;954.8918;;;;
2023/02/13 09:53:51;;;;;;;8.9;4.8;;;;;;;9.42;51.48633;954.8992;;;;
2023/02/13 09:56:16;;;;;;;7.5;4.8;;;;;;;8.88;52.57031;954.7917;;;;
2023/02/13 09:58:42;;;;;;;11.4;5.3;;;;;;;8.84;54.27051;954.8192;;;;
2023/02/13 10:01:07;;;;;;;10.5;5.5;;;;;;;11.32;49.00195;954.7151;;;;
2023/02/13 10:03:36;;;;;;;7.5;4.4;;;;;;;11.03;48.48926;954.6544;;;;
2023/02/13 10:06:01;;;;;;;8.8;4.7;;;;;;;10.67;48.44824;954.6795;;;;
2023/02/13 10:08:26;;;;;;;7.1;4.6;;;;;;;11.54;48.05371;954.6381;;;;
2023/02/13 10:10:53;;;;;;;6.1;4.3;;;;;;;12.9;44.80664;954.6286;;;;
2023/02/13 10:13:22;;;;;;;5.7;3.9;;;;;;;12.07;46.19922;954.6806;;;;
2023/02/13 10:15:51;;;;;;;11.4;4.2;;;;;;;13.11;44.49512;954.6511;;;;
2023/02/13 10:18:18;;;;;;;7.9;3.9;;;;;;;13.65;43.38867;954.6426;;;;
2023/02/13 10:20:45;;;;;;;4.7;3.4;;;;;;;13.18;44.15723;954.6277;;;;
2023/02/13 10:23:10;;;;;;;6.1;3.1;;;;;;;12.97;44.16992;954.6375;;;;
2023/02/13 10:25:35;;;;;;;6.8;3.1;;;;;;;11.94;46.50488;954.6691;;;;
2023/02/13 10:28:00;;;;;;;13.2;8.8;;;;;;;10.42;55.46289;954.7458;;;;
2023/02/13 10:30:25;;;;;;;13.5;9;;;;;;;10.12;55.40137;954.6749;;;;
2023/02/13 10:32:50;;;;;;;8.4;6.9;;;;;;;9.38;57.5957;954.7745;;;;
2023/02/13 10:35:15;;;;;;;9.8;7.3;;;;;;;9.35;56.8291;954.7456;;;;
2023/02/13 10:37:41;;;;;;;9.9;6.8;;;;;;;8.76;59.04883;954.749;;;;
2023/02/13 10:40:06;;;;;;;8.9;6.5;;;;;;;9.39;56.11621;954.7307;;;;
2023/02/13 10:42:40;;;;;;;7.2;5.9;;;;;;;9.53;54.89453;954.7017;;;;
2023/02/13 10:45:07;;;;;;;7.4;5.8;;;;;;;8.95;56.58301;954.6817;;;;
2023/02/13 10:47:37;;;;;;;7.9;5.9;;;;;;;9.05;57.02734;954.6653;;;;
2023/02/13 10:50:06;;;;;;;8.2;6;;;;;;;9;56.39648;954.6411;;;;
2023/02/13 10:52:38;;;;;;;7.3;5.5;;;;;;;9.18;56.27148;954.5269;;;;
2023/02/13 10:55:04;;;;;;;8.6;6.3;;;;;;;8.8;58.04102;954.5958;;;;
2023/02/13 10:57:32;;;;;;;7.7;5.7;;;;;;;8.79;58.49414;954.5872;;;;
2023/02/13 10:59:57;;;;;;;7.5;5.7;;;;;;;9.25;57.66895;954.565;;;;
2023/02/13 11:02:25;;;;;;;7.9;5.8;;;;;;;9.64;56.77637;954.4986;;;;
2023/02/13 11:04:50;;;;;;;7.7;5.4;;;;;;;9.81;55.56738;954.5159;;;;
2023/02/13 11:07:15;;;;;;;8;5.6;;;;;;;10.48;53.68945;954.5037;;;;
2023/02/13 11:09:40;;;;;;;6.9;5.6;;;;;;;10.44;53.98242;954.4807;;;;
2023/02/13 11:12:05;;;;;;;7.3;5.4;;;;;;;11.2;52.18945;954.4764;;;;
2023/02/13 11:14:32;;;;;;;8.2;6.1;;;;;;;11.16;53.51074;954.4592;;;;
2023/02/13 11:16:57;;;;;;;10.5;6.7;;;;;;;11.11;53.85938;954.4321;;;;
2023/02/13 11:19:23;;;;;;;8.8;6.6;;;;;;;11.51;51.87109;954.4919;;;;
2023/02/13 11:21:48;;;;;;;9.4;6.9;;;;;;;11.79;51.20605;954.4246;;;;
2023/02/13 11:24:13;;;;;;;9.9;7.4;;;;;;;11.73;52.49512;954.3931;;;;
2023/02/13 11:26:38;;;;;;;10.2;7.2;;;;;;;11.78;52.90137;954.4639;;;;
2023/02/13 11:29:03;;;;;;;9.8;7;;;;;;;11.64;53.44531;954.3998;;;;
2023/02/13 11:31:32;;;;;;;10.2;7.5;;;;;;;11.99;52.22852;954.3849;;;;
2023/02/13 11:33:57;;;;;;;10.5;6.9;;;;;;;12.62;50.74316;954.3728;;;;
2023/02/13 11:36:22;;;;;;;9.9;7.3;;;;;;;12.49;51.08398;954.3897;;;;
2023/02/13 11:38:52;;;;;;;10;6.9;;;;;;;12.54;51.46875;954.3816;;;;
2023/02/13 11:41:17;;;;;;;10.4;7;;;;;;;13.36;49.49707;954.3164;;;;
2023/02/13 11:43:42;;;;;;;9.1;6.7;;;;;;;13.87;47.91992;954.3116;;;;
2023/02/13 11:46:10;;;;;;;8.5;6;;;;;;;14.15;46.05273;954.2958;;;;
2023/02/13 11:48:35;;;;;;;8.6;6.1;;;;;;;14.48;45.17676;954.3186;;;;
2023/02/13 11:51:00;;;;;;;9.1;6.9;;;;;;;15.03;44.16113;954.2419;;;;
2023/02/13 11:53:29;;;;;;;9.5;6.8;;;;;;;16.06;42.125;954.2955;;;;
2023/02/13 11:55:54;;;;;;;8.2;6.5;;;;;;;16.46;41.33105;954.2877;;;;
2023/02/13 11:58:19;;;;;;;10.1;6.6;;;;;;;16.07;42.4502;954.2281;;;;
2023/02/13 12:00:44;;;;;;;9.3;6;;;;;;;16.56;41.47949;954.2448;;;;
2023/02/13 12:03:09;;;;;;;8.1;6.3;;;;;;;17.73;39.47656;954.1803;;;;
2023/02/13 12:05:35;;;;;;;9;6.2;;;;;;;18.06;38.36816;954.1671;;;;
2023/02/13 12:08:00;;;;;;;8.2;6.5;;;;;;;17.26;39.08691;954.1619;;;;
2023/02/13 12:10:29;;;;;;;9.4;6;;;;;;;17.88;38.66602;954.1406;;;;
2023/02/13 12:12:58;;;;;;;8.1;5.8;;;;;;;18.31;38.33301;954.1519;;;;
2023/02/13 12:15:24;;;;;;;7.5;5.8;;;;;;;20.24;34.81152;954.1337;;;;
2023/02/13 12:17:53;;;;;;;6.9;5.6;;;;;;;21.63;32.32129;954.1;;;;
2023/02/13 12:20:18;;;;;;;8.4;5.5;;;;;;;22.87;30.40234;954.0887;;;;
2023/02/13 12:22:44;;;;;;;6.8;5.2;;;;;;;22.42;29.96191;954.0628;;;;
2023/02/13 12:25:12;;;;;;;6.5;4.9;;;;;;;22.57;29.49023;954.0558;;;;
2023/02/13 12:27:43;;;;;;;6.8;5.2;;;;;;;23.7;27.75391;954.0544;;;;
2023/02/13 12:30:16;;;;;;;7.9;4.7;;;;;;;23.79;27.3125;953.9945;;;;
2023/02/13 12:32:41;;;;;;;6.7;4.9;;;;;;;24.28;26.83594;953.9086;;;;
2023/02/13 12:35:07;;;;;;;5.6;4.7;;;;;;;24.51;26.7207;953.9169;;;;
2023/02/13 12:37:32;;;;;;;4.4;4;;;;;;;25.66;25.08789;953.8636;;;;
2023/02/13 12:39:57;;;;;;;5;3.9;;;;;;;26.83;23.74316;953.788;;;;
2023/02/13 12:42:25;;;;;;;6;4.6;;;;;;;26.94;23.45215;953.8208;;;;
2023/02/13 12:44:50;;;;;;;6.8;4.9;;;;;;;27.73;23.07813;953.817;;;;
2023/02/13 12:47:15;;;;;;;7.5;5;;;;;;;25.92;24.73535;953.8086;;;;
2023/02/13 12:49:41;;;;;;;6.6;5.1;;;;;;;27.24;23.33789;953.7587;;;;
2023/02/13 12:52:11;;;;;;;5.6;4.8;;;;;;;27.87;22.61035;953.7233;;;;
2023/02/13 12:54:40;;;;;;;4.7;4.2;;;;;;;26.99;22.81445;953.6772;;;;
2023/02/13 12:57:07;;;;;;;6.4;5.1;;;;;;;24.62;26.14844;953.7771;;;;
2023/02/13 12:59:35;;;;;;;6.9;5.2;;;;;;;23.12;27.90527;953.7289;;;;
2023/02/13 13:02:02;;;;;;;6.2;5.1;;;;;;;23.3;27.31738;953.707;;;;
2023/02/13 13:04:25;;;;;;;5.6;4.1;;;;;;;23.07;27.67871;953.6783;;;;
2023/02/13 13:06:53;;;;;;;5.5;4.3;;;;;;;23.79;26.74707;953.6975;;;;
2023/02/13 13:09:18;;;;;;;7;4.7;;;;;;;23.44;26.62109;953.7059;;;;
2023/02/13 13:11:44;;;;;;;4.9;4.4;;;;;;;25.21;24.42383;953.6099;;;;
2023/02/13 13:14:09;;;;;;;6;4.6;;;;;;;23.7;26.69531;953.6437;;;;
2023/02/13 13:16:36;;;;;;;5.1;4;;;;;;;24.36;26.24023;953.5873;;;;
2023/02/13 13:19:04;;;;;;;6.2;4;;;;;;;23.77;26.3457;953.5962;;;;
2023/02/13 13:21:32;;;;;;;5;4.2;;;;;;;23;27.56934;953.6067;;;;
2023/02/13 13:23:59;;;;;;;5.4;4.1;;;;;;;23.29;27.36426;953.6063;;;;
2023/02/13 13:26:24;;;;;;;6.5;4.8;;;;;;;24.11;26.22461;953.5801;;;;
2023/02/13 13:28:49;;;;;;;5.8;4.2;;;;;;;23.44;27.19727;953.6262;;;;
2023/02/13 13:31:17;;;;;;;5;4.2;;;;;;;24.23;25.86621;953.5298;;;;
2023/02/13 13:33:42;;;;;;;4.8;3.9;;;;;;;24.79;25.35645;953.5302;;;;
2023/02/13 13:36:07;;;;;;;4.7;4;;;;;;;24.25;25.96289;953.5662;;;;
2023/02/13 13:38:36;;;;;;;5;4.2;;;;;;;23.5;26.70605;953.6163;;;;
2023/02/13 13:41:03;;;;;;;5.1;4.1;;;;;;;23.56;27.0625;953.608;;;;
2023/02/13 13:43:28;;;;;;;5.4;4.4;;;;;;;21.93;29.08496;953.6305;;;;
2023/02/13 13:45:53;;;;;;;5.8;4.5;;;;;;;22.66;28.75684;953.6334;;;;
2023/02/13 13:48:19;;;;;;;4.8;4;;;;;;;24.1;26.60156;953.6395;;;;
2023/02/13 13:50:45;;;;;;;5.4;4;;;;;;;24.03;26.30273;953.6312;;;;
2023/02/13 13:53:18;;;;;;;6.3;4.8;;;;;;;22.45;28.46191;953.6138;;;;
2023/02/13 13:55:45;;;;;;;5.9;4.2;;;;;;;23.63;27.10254;953.5424;;;;
2023/02/13 13:58:16;;;;;;;5.4;4;;;;;;;22.81;27.72168;953.6209;;;;
2023/02/13 14:00:45;;;;;;;5;4.1;;;;;;;23.56;27.29785;953.6545;;;;
2023/02/13 14:03:11;;;;;;;5;3.9;;;;;;;23.38;26.89941;953.6755;;;;
2023/02/13 14:05:44;;;;;;;4.4;3.7;;;;;;;23.24;27.45508;953.6641;;;;
2023/02/13 14:08:10;;;;;;;5;3.6;;;;;;;22.83;27.81641;953.6522;;;;
2023/02/13 14:10:37;;;;;;;4.7;3.7;;;;;;;23.57;26.56934;953.6049;;;;
2023/02/13 14:13:03;;;;;;;5.8;4.1;;;;;;;23.6;27.25391;953.6572;;;;
2023/02/13 14:15:33;;;;;;;5;3.7;;;;;;;24.64;25.84375;953.6083;;;;
2023/02/13 14:18:02;;;;;;;5.6;4.3;;;;;;;24.28;26.4707;953.5682;;;;
2023/02/13 14:20:26;;;;;;;5.7;4.5;;;;;;;24.59;26.4541;953.5651;;;;
2023/02/13 14:22:51;;;;;;;4.8;4;;;;;;;24.97;25.55566;953.5658;;;;
2023/02/13 14:25:21;;;;;;;5.4;4.1;;;;;;;26.21;24.27734;953.6072;;;;
2023/02/13 14:27:46;;;;;;;5.2;4.3;;;;;;;24.84;25.5957;953.5938;;;;
2023/02/13 14:30:15;;;;;;;4.7;3.7;;;;;;;25.91;24.79395;953.5894;;;;
2023/02/13 14:32:40;;;;;;;5.1;4.3;;;;;;;26.5;24.05664;953.5821;;;;
2023/02/13 14:35:05;;;;;;;6.3;4.6;;;;;;;26.05;24.19824;953.5992;;;;
2023/02/13 14:37:44;;;;;;;5.8;4.2;;;;;;;25.92;24.5459;953.6105;;;;
2023/02/13 14:40:16;;;;;;;5.6;4.8;;;;;;;26.12;24.46191;953.6325;;;;
2023/02/13 14:42:43;;;;;;;5.5;4.3;;;;;;;26.46;23.77051;953.5645;;;;
2023/02/13 14:45:08;;;;;;;4.8;4.1;;;;;;;26.71;23.55859;953.5798;;;;
2023/02/13 14:47:33;;;;;;;5.6;4.7;;;;;;;26.86;23.38867;953.5609;;;;
2023/02/13 14:49:58;;;;;;;6.1;4.3;;;;;;;26.29;24.17578;953.6013;;;;
2023/02/13 14:52:26;;;;;;;6.2;4.6;;;;;;;25.66;24.74414;953.5422;;;;
2023/02/13 14:54:49;;;;;;;5.3;4.4;;;;;;;26.03;24.35156;953.5636;;;;
2023/02/13 14:57:14;;;;;;;6.1;4.8;;;;;;;25.96;24.4541;953.5554;;;;
2023/02/13 14:59:39;;;;;;;6.1;4.4;;;;;;;26.15;24.27441;953.5386;;;;
2023/02/13 15:02:08;;;;;;;6.4;5.1;;;;;;;25.95;24.38184;953.5535;;;;
2023/02/13 15:04:33;;;;;;;5.4;4.5;;;;;;;25.27;25.15918;953.5844;;;;
2023/02/13 15:07:03;;;;;;;7.6;4.5;;;;;;;24.76;25.66211;953.6188;;;;
2023/02/13 15:09:31;;;;;;;6.7;4.8;;;;;;;24.36;26.11035;953.6287;;;;
2023/02/13 15:11:55;;;;;;;6.2;4.9;;;;;;;24.35;26.29883;953.6062;;;;
2023/02/13 15:14:27;;;;;;;7.2;4.7;;;;;;;24.38;26.09961;953.6097;;;;
2023/02/13 15:16:57;;;;;;;7.9;4.8;;;;;;;24.11;26.53125;953.6167;;;;
2023/02/13 15:19:27;;;;;;;5.3;4.5;;;;;;;23.88;26.87012;953.6742;;;;
2023/02/13 15:21:53;;;;;;;6.4;5;;;;;;;23.68;27.10547;953.6945;;;;
2023/02/13 15:24:18;;;;;;;7.2;4.6;;;;;;;23.67;27.1875;953.7109;;;;
2023/02/13 15:26:43;;;;;;;6.5;4.7;;;;;;;22.85;27.6543;953.7159;;;;
2023/02/13 15:29:08;;;;;;;6.5;4.5;;;;;;;21.15;29.64258;953.706;;;;
2023/02/13 15:31:34;;;;;;;10.9;7.8;;;;;;;20.01;30.86035;953.7794;;;;
2023/02/13 15:34:00;;;;;;;12.1;7;;;;;;;18.21;33.93164;953.7244;;;;
2023/02/13 15:36:24;;;;;;;8.5;5.4;;;;;;;16.29;36.99902;953.8769;;;;
2023/02/13 15:38:49;;;;;;;8.8;5.3;;;;;;;14.98;39.8418;953.883;;;;
2023/02/13 15:41:17;;;;;;;8.8;6.1;;;;;;;14.14;41.98633;953.8813;;;;
2023/02/13 15:43:45;;;;;;;7.7;5.2;;;;;;;13.57;43.35742;953.9089;;;;
2023/02/13 15:46:10;;;;;;;11.7;6;;;;;;;12.9;45.11621;953.96;;;;
2023/02/13 15:48:36;;;;;;;10.7;6.9;;;;;;;12.28;46.81836;953.9738;;;;
2023/02/13 15:51:02;;;;;;;12.7;6.7;;;;;;;11.67;48.43555;953.9899;;;;
2023/02/13 15:53:31;;;;;;;14.7;7.7;;;;;;;11.19;49.69629;954.0289;;;;
2023/02/13 15:55:56;;;;;;;7.3;5.3;;;;;;;10.68;52.03711;954.048;;;;
2023/02/13 15:58:21;;;;;;;6.8;4;;;;;;;10.47;52.66113;954.0708;;;;
2023/02/13 16:00:46;;;;;;;5.9;4.1;;;;;;;9.94;54.68457;954.1269;;;;
2023/02/13 16:03:19;;;;;;;9.3;4.3;;;;;;;9.58;55.93555;954.1387;;;;
2023/02/13 16:05:44;;;;;;;8.5;4.6;;;;;;;9.17;57.78418;954.2221;;;;
2023/02/13 16:08:14;;;;;;;10.6;4.6;;;;;;;9.28;57.50293;954.1649;;;;
2023/02/13 16:10:44;;;;;;;7.8;4.9;;;;;;;9.28;57.65137;954.2325;;;;
2023/02/13 16:13:12;;;;;;;7.4;4.7;;;;;;;9.26;57.65918;954.1761;;;;
2023/02/13 16:15:37;;;;;;;7.5;4.5;;;;;;;9.22;57.64258;954.2388;;;;
2023/02/13 16:18:05;;;;;;;8.2;4.7;;;;;;;9.06;57.62109;954.2059;;;;
2023/02/13 16:20:28;;;;;;;7.8;5.1;;;;;;;8.75;58.53418;954.228;;;;
2023/02/13 16:22:53;;;;;;;25.5;9.2;;;;;;;8.63;58.77832;954.2031;;;;
2023/02/13 16:25:23;;;;;;;38;15.6;;;;;;;8.5;59.31934;954.2484;;;;
2023/02/13 16:27:48;;;;;;;14.7;6.4;;;;;;;8.29;60.06348;954.2586;;;;
2023/02/13 16:30:15;;;;;;;11.1;5.4;;;;;;;8.09;60.76074;954.3445;;;;